Andover, NJ

5:40 AM EDT on November 01, 2014 (GMT -0400)
Stanhope,NJ | Change Station
CLOSE
Current Station
Personal Weather Station
Location: Stanhope, NJ
Elevation: 970 ft
Nearby Weather Stations

Elev 970 ft 40.91 °N, 74.70 °W | Updated 1 minute ago

Overcast
Overcast
40.8 °F
Feels Like 41 °F
N
0.0
Wind Variable Wind from ENE
Gusts 1.0 mph

Today
High -- | Low -- °F
--% Chance of Precip.
Yesterday
High -- | Low -- °F
Precip. -- in
7:29 AM 5:54 PM
Waxing Gibbous, 64% visible
Pressure 29.86 in
Visibility 10.0 miles
Clouds Scattered Clouds 1900 ft
Overcast 4500 ft
Windchill 41 °F
Dew Point 38 °F
Humidity 91%
Rainfall 0.04 in
Snow Depth Not available.
UV 0 out of 12
Pollen .50 out of 12
Air Quality Not available.
Flu Activity Not available.
SPECI KFWN 010933Z AUTO 05009KT 10SM SCT019 OVC045 08/04 A2986 RMK AO2 T00830039

More Conditions Fewer Conditions

Pressure 29.86 in
Visibility 10.0 miles
Clouds Scattered Clouds 1900 ft
Overcast 4500 ft
Windchill 41 °F
Dew Point 38 °F
Humidity 91%
Rainfall 0.04 in
Snow Depth Not available.
UV 0 out of 12
Pollen .50 out of 12
Air Quality Not available.
Flu Activity Not available.
SPECI KFWN 010933Z AUTO 05009KT 10SM SCT019 OVC045 08/04 A2986 RMK AO2 T00830039

More Conditions Fewer Conditions

Nowcast | as of 4:58 am EDT on November 1, 2014

Showers will continue to spread across the area this morning. Rainfall rates of around a couple of hundredths to less than a tenth of an inch can occur which will lead to slick roadways. Drivers are urged to use caution while driving this morning.

×

10-Day Weather Forecast

Almanac

Astronomy

Nov. 01, 2014 Rise Set
Actual Time
Civil Twilight
Nautical Twilight
Astronomical Twilight
Moon
Length of Visible Light
Length of Day
Tomorrow will be .
, % of the Moon is Illuminated

Today's Extremes

State Highs State Lows

Community

WunderPhotos

Upload Photos

1,766,872 photos uploaded!

WunderBlogs® & News

Nearby

Air Quality

  Air Quality AQ Index Pollutant
Not available.

Snow Depth

Station Depth Elevation

Earthquake Activity

City Distance Mag. Time & Date
Minimum magnitude displayed is 2.5.

Coastal Water Temperatures

Place Temperature

Nearby Weather Stations